EST,Max TemperatureF,Mean TemperatureF,Min TemperatureF,Max Dew PointF,MeanDew PointF,Min DewpointF,Max Humidity, Mean Humidity, Min Humidity, Max Sea Level PressureIn, Mean Sea Level PressureIn, Min Sea Level PressureIn, Max VisibilityMiles, Mean VisibilityMiles, Min VisibilityMiles, Max Wind SpeedMPH, Mean Wind SpeedMPH, Max Gust SpeedMPH,PrecipitationIn, CloudCover, Events, WindDirDegrees
2013-2-1,55,40,25,28,19,3,69,42,14,30.39,30.18,30.05,10,10,10,30,13,40,0.00,0,,275
2013-2-2,49,37,24,39,23,12,79,59,38,30.42,30.28,30.06,10,10,10,10,5,14,0.00,0,,64
2013-2-3,56,45,33,39,33,26,85,59,32,30.04,29.96,29.88,10,10,10,24,7,31,0.00,2,,281
2013-2-4,50,39,27,36,28,22,92,64,36,30.17,30.09,30.02,10,10,10,9,2,12,0.00,0,,333
2013-2-5,67,52,37,47,38,32,92,60,28,30.06,29.99,29.92,10,10,10,20,7,25,0.00,0,,228
2013-2-6,69,55,41,47,41,36,96,63,30,30.24,30.12,30.00,10,9,5,12,5,17,0.00,0,,85
2013-2-7,63,51,39,54,48,38,93,77,60,30.25,30.10,29.80,10,6,2,28,12,33,1.05,6,Rain,48
2013-2-8,61,55,48,55,47,37,93,74,55,30.02,29.78,29.58,10,9,2,35,14,43,0.57,5,Rain,324
2013-2-9,56,44,32,33,28,22,82,54,26,30.37,30.22,30.05,10,10,10,20,8,25,0.00,0,,322
2013-2-10,58,44,29,49,37,23,92,73,54,30.47,30.38,30.28,10,10,10,13,6,16,0.00,0,,67
2013-2-11,67,60,52,61,58,50,90,84,78,30.30,30.09,29.99,10,10,5,26,13,36,0.13,7,Rain,212
2013-2-12,64,57,50,57,51,38,93,66,39,30.09,30.01,29.95,10,10,5,20,6,25,0.25,5,Rain,249
2013-2-13,62,55,48,57,49,45,93,85,77,29.95,29.78,29.66,10,8,2,23,9,30,0.64,7,Rain,39
2013-2-14,54,48,41,46,38,35,89,70,50,30.09,30.00,29.82,10,10,10,14,4,18,0.00,0,,352
2013-2-15,59,47,34,39,36,32,100,70,39,30.10,30.04,29.97,10,10,7,12,4,14,0.00,0,,113
2013-2-16,53,44,34,40,36,32,92,78,63,29.96,29.84,29.73,10,9,2,23,8,30,0.18,5,Rain-Snow,338
2013-2-17,41,35,28,32,20,11,82,56,30,30.29,30.08,29.90,10,9,2,29,14,37,0.02,2,Snow,292
2013-2-18,49,37,24,28,21,12,82,53,23,30.45,30.38,30.30,10,10,10,14,3,17,0.00,0,,169
2013-2-19,63,48,32,54,44,28,96,78,60,30.30,30.08,29.94,10,10,5,26,8,36,T,4,Rain,217
2013-2-20,58,47,36,43,30,17,89,55,21,30.13,30.07,29.99,10,10,10,14,7,20,0.00,0,,281
2013-2-21,60,47,33,37,27,19,89,56,23,30.24,30.17,30.10,10,10,10,14,5,17,0.00,0,,8
2013-2-22,52,46,40,49,38,25,93,73,53,30.32,30.20,30.06,10,9,1,16,8,21,0.28,6,Rain-Thunderstorm,65
2013-2-23,52,48,44,52,45,43,100,96,92,30.06,29.94,29.84,10,4,0,13,5,16,0.36,8,Rain,324
2013-2-24,65,54,43,48,45,41,100,72,44,30.01,29.89,29.79,10,8,2,15,6,20,0.02,5,Rain,302
2013-2-25,46,42,38,40,33,29,96,75,53,30.18,30.10,30.01,10,10,6,20,10,25,0.00,3,,36
2013-2-26,69,56,43,65,55,32,100,84,67,30.07,29.79,29.61,10,6,1,23,13,35,1.64,7,Rain,124
2013-2-27,62,55,48,55,43,38,93,70,47,29.83,29.77,29.67,10,10,10,24,12,31,0.00,0,,248
2013-2-28,59,49,39,42,36,32,89,65,40,29.86,29.78,29.73,10,10,10,21,10,26,0.00,2,,265